sensor_id;sensor_type;location;lat;lon;timestamp;temperature;humidity
67093;SHT31;54011;50.772;7.730;2022-11-15T00:02:23;10.36;90.69
67093;SHT31;54011;50.772;7.730;2022-11-15T00:05:07;10.53;90.53
67093;SHT31;54011;50.772;7.730;2022-11-15T00:07:52;10.70;90.28
67093;SHT31;54011;50.772;7.730;2022-11-15T00:10:37;10.84;89.46
67093;SHT31;54011;50.772;7.730;2022-11-15T00:13:21;11.00;90.45
67093;SHT31;54011;50.772;7.730;2022-11-15T00:16:05;11.07;89.67
67093;SHT31;54011;50.772;7.730;2022-11-15T00:18:50;11.18;89.86
67093;SHT31;54011;50.772;7.730;2022-11-15T00:21:34;11.22;89.59
67093;SHT31;54011;50.772;7.730;2022-11-15T00:24:18;11.32;89.43
67093;SHT31;54011;50.772;7.730;2022-11-15T00:27:02;11.42;89.20
67093;SHT31;54011;50.772;7.730;2022-11-15T00:29:46;11.36;89.45
67093;SHT31;54011;50.772;7.730;2022-11-15T00:32:31;11.46;89.39
67093;SHT31;54011;50.772;7.730;2022-11-15T00:35:16;11.69;88.56
67093;SHT31;54011;50.772;7.730;2022-11-15T00:38:02;11.56;88.89
67093;SHT31;54011;50.772;7.730;2022-11-15T00:40:47;11.62;88.76
67093;SHT31;54011;50.772;7.730;2022-11-15T00:43:32;11.59;88.56
67093;SHT31;54011;50.772;7.730;2022-11-15T00:46:16;11.65;88.90
67093;SHT31;54011;50.772;7.730;2022-11-15T00:49:00;11.70;88.35
67093;SHT31;54011;50.772;7.730;2022-11-15T00:51:44;11.70;88.41
67093;SHT31;54011;50.772;7.730;2022-11-15T00:54:28;11.73;88.51
67093;SHT31;54011;50.772;7.730;2022-11-15T00:57:13;11.89;88.20
67093;SHT31;54011;50.772;7.730;2022-11-15T00:59:57;11.98;87.83
67093;SHT31;54011;50.772;7.730;2022-11-15T01:02:41;12.08;87.49
67093;SHT31;54011;50.772;7.730;2022-11-15T01:05:25;12.08;87.45
67093;SHT31;54011;50.772;7.730;2022-11-15T01:08:13;12.01;87.88
67093;SHT31;54011;50.772;7.730;2022-11-15T01:11:02;12.08;87.75
67093;SHT31;54011;50.772;7.730;2022-11-15T01:13:46;12.16;87.61
67093;SHT31;54011;50.772;7.730;2022-11-15T01:16:39;12.18;87.51
67093;SHT31;54011;50.772;7.730;2022-11-15T01:19:27;12.26;87.30
67093;SHT31;54011;50.772;7.730;2022-11-15T01:22:19;12.23;87.33
67093;SHT31;54011;50.772;7.730;2022-11-15T01:25:04;12.18;87.36
67093;SHT31;54011;50.772;7.730;2022-11-15T01:27:47;12.14;87.75
67093;SHT31;54011;50.772;7.730;2022-11-15T01:30:32;12.13;87.58
67093;SHT31;54011;50.772;7.730;2022-11-15T01:33:16;12.12;87.52
67093;SHT31;54011;50.772;7.730;2022-11-15T01:36:07;12.07;87.80
67093;SHT31;54011;50.772;7.730;2022-11-15T01:38:58;12.03;88.03
67093;SHT31;54011;50.772;7.730;2022-11-15T01:41:42;12.00;88.20
67093;SHT31;54011;50.772;7.730;2022-11-15T01:47:31;11.86;88.59
67093;SHT31;54011;50.772;7.730;2022-11-15T01:50:22;11.85;88.37
67093;SHT31;54011;50.772;7.730;2022-11-15T01:53:08;11.80;88.79
67093;SHT31;54011;50.772;7.730;2022-11-15T01:55:53;11.66;89.45
67093;SHT31;54011;50.772;7.730;2022-11-15T01:58:38;11.56;89.87
67093;SHT31;54011;50.772;7.730;2022-11-15T02:01:25;11.66;89.70
67093;SHT31;54011;50.772;7.730;2022-11-15T02:04:13;11.62;89.55
67093;SHT31;54011;50.772;7.730;2022-11-15T02:07:04;11.72;89.39
67093;SHT31;54011;50.772;7.730;2022-11-15T02:09:49;11.67;89.44
67093;SHT31;54011;50.772;7.730;2022-11-15T02:12:34;11.73;89.38
67093;SHT31;54011;50.772;7.730;2022-11-15T02:15:18;11.67;89.44
67093;SHT31;54011;50.772;7.730;2022-11-15T02:18:35;11.79;89.06
67093;SHT31;54011;50.772;7.730;2022-11-15T02:27:25;11.96;88.00
67093;SHT31;54011;50.772;7.730;2022-11-15T02:36:52;12.10;87.05
67093;SHT31;54011;50.772;7.730;2022-11-15T02:42:35;12.16;86.63
67093;SHT31;54011;50.772;7.730;2022-11-15T02:45:50;12.23;86.28
67093;SHT31;54011;50.772;7.730;2022-11-15T02:48:36;12.17;86.41
67093;SHT31;54011;50.772;7.730;2022-11-15T02:51:23;12.24;86.40
67093;SHT31;54011;50.772;7.730;2022-11-15T02:54:14;12.17;86.63
67093;SHT31;54011;50.772;7.730;2022-11-15T02:57:04;12.21;86.54
67093;SHT31;54011;50.772;7.730;2022-11-15T02:59:56;12.24;86.30
67093;SHT31;54011;50.772;7.730;2022-11-15T03:09:11;12.33;86.07
67093;SHT31;54011;50.772;7.730;2022-11-15T03:12:12;12.26;86.18
67093;SHT31;54011;50.772;7.730;2022-11-15T03:15:29;12.28;86.16
67093;SHT31;54011;50.772;7.730;2022-11-15T03:18:23;12.26;86.19
67093;SHT31;54011;50.772;7.730;2022-11-15T03:21:12;12.23;86.14
67093;SHT31;54011;50.772;7.730;2022-11-15T03:24:01;12.24;86.03
67093;SHT31;54011;50.772;7.730;2022-11-15T03:26:48;12.27;86.00
67093;SHT31;54011;50.772;7.730;2022-11-15T03:29:37;12.24;86.07
67093;SHT31;54011;50.772;7.730;2022-11-15T03:32:25;12.27;85.92
67093;SHT31;54011;50.772;7.730;2022-11-15T03:35:13;12.24;85.98
67093;SHT31;54011;50.772;7.730;2022-11-15T03:38:19;12.21;86.03
67093;SHT31;54011;50.772;7.730;2022-11-15T03:41:25;12.28;85.94
67093;SHT31;54011;50.772;7.730;2022-11-15T03:44:46;12.21;85.94
67093;SHT31;54011;50.772;7.730;2022-11-15T03:47:39;12.33;85.91
67093;SHT31;54011;50.772;7.730;2022-11-15T03:50:25;12.23;86.27
67093;SHT31;54011;50.772;7.730;2022-11-15T03:53:10;12.31;86.01
67093;SHT31;54011;50.772;7.730;2022-11-15T03:55:54;12.27;86.44
67093;SHT31;54011;50.772;7.730;2022-11-15T03:58:38;12.20;86.61
67093;SHT31;54011;50.772;7.730;2022-11-15T04:01:22;12.27;86.81
67093;SHT31;54011;50.772;7.730;2022-11-15T04:04:06;12.18;87.33
67093;SHT31;54011;50.772;7.730;2022-11-15T04:06:50;12.16;87.77
67093;SHT31;54011;50.772;7.730;2022-11-15T04:09:34;12.21;87.73
67093;SHT31;54011;50.772;7.730;2022-11-15T04:12:40;12.26;87.73
67093;SHT31;54011;50.772;7.730;2022-11-15T04:15:26;12.27;87.93
67093;SHT31;54011;50.772;7.730;2022-11-15T04:18:13;12.23;88.08
67093;SHT31;54011;50.772;7.730;2022-11-15T04:20:57;12.08;88.87
67093;SHT31;54011;50.772;7.730;2022-11-15T04:24:00;12.13;88.98
67093;SHT31;54011;50.772;7.730;2022-11-15T04:26:57;12.07;89.33
67093;SHT31;54011;50.772;7.730;2022-11-15T04:29:41;11.98;89.83
67093;SHT31;54011;50.772;7.730;2022-11-15T04:32:25;11.97;89.92
67093;SHT31;54011;50.772;7.730;2022-11-15T04:35:09;11.91;90.40
67093;SHT31;54011;50.772;7.730;2022-11-15T04:37:54;11.91;90.37
67093;SHT31;54011;50.772;7.730;2022-11-15T04:40:39;11.86;90.47
67093;SHT31;54011;50.772;7.730;2022-11-15T04:43:23;11.91;90.31
67093;SHT31;54011;50.772;7.730;2022-11-15T04:46:07;11.90;90.45
67093;SHT31;54011;50.772;7.730;2022-11-15T04:48:55;11.87;90.59
67093;SHT31;54011;50.772;7.730;2022-11-15T04:51:39;11.91;90.21
67093;SHT31;54011;50.772;7.730;2022-11-15T04:54:23;11.94;90.31
67093;SHT31;54011;50.772;7.730;2022-11-15T04:57:07;11.96;90.22
67093;SHT31;54011;50.772;7.730;2022-11-15T04:59:51;11.91;90.23
67093;SHT31;54011;50.772;7.730;2022-11-15T05:02:35;11.90;90.50
67093;SHT31;54011;50.772;7.730;2022-11-15T05:05:39;12.00;90.07
67093;SHT31;54011;50.772;7.730;2022-11-15T05:08:23;12.04;89.75
67093;SHT31;54011;50.772;7.730;2022-11-15T05:11:07;12.03;89.84
67093;SHT31;54011;50.772;7.730;2022-11-15T05:13:51;12.04;89.63
67093;SHT31;54011;50.772;7.730;2022-11-15T05:16:35;12.06;89.73
67093;SHT31;54011;50.772;7.730;2022-11-15T05:19:19;12.06;89.51
67093;SHT31;54011;50.772;7.730;2022-11-15T05:22:03;12.08;89.35
67093;SHT31;54011;50.772;7.730;2022-11-15T05:24:47;12.01;89.57
67093;SHT31;54011;50.772;7.730;2022-11-15T05:27:33;12.12;88.81
67093;SHT31;54011;50.772;7.730;2022-11-15T05:30:18;12.08;88.76
67093;SHT31;54011;50.772;7.730;2022-11-15T05:33:04;12.04;88.75
67093;SHT31;54011;50.772;7.730;2022-11-15T05:35:59;12.10;88.62
67093;SHT31;54011;50.772;7.730;2022-11-15T05:38:45;12.06;88.55
67093;SHT31;54011;50.772;7.730;2022-11-15T05:41:45;12.00;88.52
67093;SHT31;54011;50.772;7.730;2022-11-15T05:44:31;12.03;88.34
67093;SHT31;54011;50.772;7.730;2022-11-15T05:47:20;12.07;87.59
67093;SHT31;54011;50.772;7.730;2022-11-15T05:50:05;12.10;87.68
67093;SHT31;54011;50.772;7.730;2022-11-15T05:52:50;12.13;87.47
67093;SHT31;54011;50.772;7.730;2022-11-15T05:55:35;12.04;87.41
67093;SHT31;54011;50.772;7.730;2022-11-15T05:58:21;11.90;87.63
67093;SHT31;54011;50.772;7.730;2022-11-15T06:01:08;11.82;87.35
67093;SHT31;54011;50.772;7.730;2022-11-15T06:03:53;11.83;87.17
67093;SHT31;54011;50.772;7.730;2022-11-15T06:06:37;11.86;86.90
67093;SHT31;54011;50.772;7.730;2022-11-15T06:09:21;11.87;86.80
67093;SHT31;54011;50.772;7.730;2022-11-15T06:12:06;11.89;86.31
67093;SHT31;54011;50.772;7.730;2022-11-15T06:14:50;11.93;86.08
67093;SHT31;54011;50.772;7.730;2022-11-15T06:17:36;11.90;86.33
67093;SHT31;54011;50.772;7.730;2022-11-15T06:20:20;11.94;85.82
67093;SHT31;54011;50.772;7.730;2022-11-15T06:23:05;11.96;85.89
67093;SHT31;54011;50.772;7.730;2022-11-15T06:25:49;11.85;85.80
67093;SHT31;54011;50.772;7.730;2022-11-15T06:28:33;11.94;85.40
67093;SHT31;54011;50.772;7.730;2022-11-15T06:31:18;11.91;85.50
67093;SHT31;54011;50.772;7.730;2022-11-15T06:34:02;11.90;85.55
67093;SHT31;54011;50.772;7.730;2022-11-15T06:36:46;11.94;85.38
67093;SHT31;54011;50.772;7.730;2022-11-15T06:39:31;11.87;85.49
67093;SHT31;54011;50.772;7.730;2022-11-15T06:42:15;11.83;85.33
67093;SHT31;54011;50.772;7.730;2022-11-15T06:44:59;11.98;84.66
67093;SHT31;54011;50.772;7.730;2022-11-15T06:47:45;11.98;84.75
67093;SHT31;54011;50.772;7.730;2022-11-15T06:50:31;11.90;85.10
67093;SHT31;54011;50.772;7.730;2022-11-15T06:53:15;11.79;84.91
67093;SHT31;54011;50.772;7.730;2022-11-15T06:56:00;11.87;84.98
67093;SHT31;54011;50.772;7.730;2022-11-15T06:58:45;11.85;84.76
67093;SHT31;54011;50.772;7.730;2022-11-15T07:01:29;11.85;84.86
67093;SHT31;54011;50.772;7.730;2022-11-15T07:04:13;11.83;84.69
67093;SHT31;54011;50.772;7.730;2022-11-15T07:06:58;11.86;84.41
67093;SHT31;54011;50.772;7.730;2022-11-15T07:09:43;11.93;84.33
67093;SHT31;54011;50.772;7.730;2022-11-15T07:12:27;11.93;84.29
67093;SHT31;54011;50.772;7.730;2022-11-15T07:15:11;11.93;84.16
67093;SHT31;54011;50.772;7.730;2022-11-15T07:17:55;11.85;84.34
67093;SHT31;54011;50.772;7.730;2022-11-15T07:20:39;11.91;84.07
67093;SHT31;54011;50.772;7.730;2022-11-15T07:23:23;11.89;83.90
67093;SHT31;54011;50.772;7.730;2022-11-15T07:26:08;11.94;83.67
67093;SHT31;54011;50.772;7.730;2022-11-15T07:28:52;11.89;83.85
67093;SHT31;54011;50.772;7.730;2022-11-15T07:31:36;11.79;84.29
67093;SHT31;54011;50.772;7.730;2022-11-15T07:34:21;11.79;84.49
67093;SHT31;54011;50.772;7.730;2022-11-15T07:37:06;11.79;84.10
67093;SHT31;54011;50.772;7.730;2022-11-15T07:39:51;11.80;84.00
67093;SHT31;54011;50.772;7.730;2022-11-15T07:42:35;11.93;83.78
67093;SHT31;54011;50.772;7.730;2022-11-15T07:45:45;11.89;83.92
67093;SHT31;54011;50.772;7.730;2022-11-15T07:48:30;11.82;83.99
67093;SHT31;54011;50.772;7.730;2022-11-15T07:51:16;11.69;84.45
67093;SHT31;54011;50.772;7.730;2022-11-15T07:54:00;11.69;84.62
67093;SHT31;54011;50.772;7.730;2022-11-15T07:56:45;11.59;84.91
67093;SHT31;54011;50.772;7.730;2022-11-15T07:59:29;11.63;84.83
67093;SHT31;54011;50.772;7.730;2022-11-15T08:02:17;11.61;84.83
67093;SHT31;54011;50.772;7.730;2022-11-15T08:05:02;11.67;84.93
67093;SHT31;54011;50.772;7.730;2022-11-15T08:07:46;11.80;84.32
67093;SHT31;54011;50.772;7.730;2022-11-15T08:10:30;11.85;83.77
67093;SHT31;54011;50.772;7.730;2022-11-15T08:13:16;12.01;83.33
67093;SHT31;54011;50.772;7.730;2022-11-15T08:16:01;12.08;83.28
67093;SHT31;54011;50.772;7.730;2022-11-15T08:18:49;12.21;82.69
67093;SHT31;54011;50.772;7.730;2022-11-15T08:21:33;12.28;82.23
67093;SHT31;54011;50.772;7.730;2022-11-15T08:24:17;12.48;81.41
67093;SHT31;54011;50.772;7.730;2022-11-15T08:27:02;12.52;81.39
67093;SHT31;54011;50.772;7.730;2022-11-15T08:29:47;12.66;80.94
67093;SHT31;54011;50.772;7.730;2022-11-15T08:32:34;12.99;79.87
67093;SHT31;54011;50.772;7.730;2022-11-15T08:35:19;12.86;79.92
67093;SHT31;54011;50.772;7.730;2022-11-15T08:38:03;12.89;80.00
67093;SHT31;54011;50.772;7.730;2022-11-15T08:40:47;13.05;79.71
67093;SHT31;54011;50.772;7.730;2022-11-15T08:43:32;13.09;79.05
67093;SHT31;54011;50.772;7.730;2022-11-15T08:46:16;13.22;78.77
67093;SHT31;54011;50.772;7.730;2022-11-15T08:49:02;13.10;79.19
67093;SHT31;54011;50.772;7.730;2022-11-15T08:51:46;13.10;79.29
67093;SHT31;54011;50.772;7.730;2022-11-15T08:54:30;13.22;78.88
67093;SHT31;54011;50.772;7.730;2022-11-15T08:57:15;13.09;79.14
67093;SHT31;54011;50.772;7.730;2022-11-15T08:59:59;13.28;78.33
67093;SHT31;54011;50.772;7.730;2022-11-15T09:02:44;13.42;78.04
67093;SHT31;54011;50.772;7.730;2022-11-15T09:05:29;13.67;77.23
67093;SHT31;54011;50.772;7.730;2022-11-15T09:08:14;13.74;76.24
67093;SHT31;54011;50.772;7.730;2022-11-15T09:10:58;13.97;75.79
67093;SHT31;54011;50.772;7.730;2022-11-15T09:13:42;13.87;75.82
67093;SHT31;54011;50.772;7.730;2022-11-15T09:16:26;13.85;75.95
67093;SHT31;54011;50.772;7.730;2022-11-15T09:19:09;13.89;75.53
67093;SHT31;54011;50.772;7.730;2022-11-15T09:21:54;13.84;76.15
67093;SHT31;54011;50.772;7.730;2022-11-15T09:24:38;14.16;75.05
67093;SHT31;54011;50.772;7.730;2022-11-15T09:27:22;13.88;75.94
67093;SHT31;54011;50.772;7.730;2022-11-15T09:30:06;14.18;74.66
67093;SHT31;54011;50.772;7.730;2022-11-15T09:32:51;13.97;75.09
67093;SHT31;54011;50.772;7.730;2022-11-15T09:35:35;14.28;74.67
67093;SHT31;54011;50.772;7.730;2022-11-15T09:38:20;14.47;74.05
67093;SHT31;54011;50.772;7.730;2022-11-15T09:47:20;14.60;72.41
67093;SHT31;54011;50.772;7.730;2022-11-15T09:53:20;14.45;72.38
67093;SHT31;54011;50.772;7.730;2022-11-15T09:55:49;15.14;70.99
67093;SHT31;54011;50.772;7.730;2022-11-15T09:58:49;15.20;70.36
67093;SHT31;54011;50.772;7.730;2022-11-15T10:01:39;15.21;69.87
67093;SHT31;54011;50.772;7.730;2022-11-15T10:04:08;15.32;69.11
67093;SHT31;54011;50.772;7.730;2022-11-15T10:06:36;15.15;68.95
67093;SHT31;54011;50.772;7.730;2022-11-15T10:09:15;15.85;68.05
67093;SHT31;54011;50.772;7.730;2022-11-15T10:11:42;16.30;66.34
67093;SHT31;54011;50.772;7.730;2022-11-15T10:14:24;16.16;65.92
67093;SHT31;54011;50.772;7.730;2022-11-15T10:17:01;14.90;68.37
67093;SHT31;54011;50.772;7.730;2022-11-15T10:20:39;15.24;67.52
67093;SHT31;54011;50.772;7.730;2022-11-15T10:27:39;15.95;65.17
67093;SHT31;54011;50.772;7.730;2022-11-15T10:30:14;16.16;63.99
67093;SHT31;54011;50.772;7.730;2022-11-15T10:32:42;15.30;63.94
67093;SHT31;54011;50.772;7.730;2022-11-15T10:35:28;15.27;65.05
67093;SHT31;54011;50.772;7.730;2022-11-15T10:38:09;15.15;63.87
67093;SHT31;54011;50.772;7.730;2022-11-15T10:40:39;15.11;64.24
67093;SHT31;54011;50.772;7.730;2022-11-15T10:43:19;15.66;62.91
67093;SHT31;54011;50.772;7.730;2022-11-15T10:45:45;15.00;63.25
67093;SHT31;54011;50.772;7.730;2022-11-15T10:50:39;15.83;61.70
67093;SHT31;54011;50.772;7.730;2022-11-15T10:56:06;16.17;61.78
67093;SHT31;54011;50.772;7.730;2022-11-15T10:58:37;17.05;59.83
67093;SHT31;54011;50.772;7.730;2022-11-15T11:01:15;17.16;58.57
67093;SHT31;54011;50.772;7.730;2022-11-15T11:03:43;16.57;59.68
67093;SHT31;54011;50.772;7.730;2022-11-15T11:06:12;16.57;58.83
67093;SHT31;54011;50.772;7.730;2022-11-15T11:08:38;16.95;57.97
67093;SHT31;54011;50.772;7.730;2022-11-15T11:11:05;16.35;60.00
67093;SHT31;54011;50.772;7.730;2022-11-15T11:13:37;16.09;60.18
67093;SHT31;54011;50.772;7.730;2022-11-15T11:18:57;16.53;60.13
67093;SHT31;54011;50.772;7.730;2022-11-15T11:21:47;16.64;59.52
67093;SHT31;54011;50.772;7.730;2022-11-15T11:24:37;16.60;59.83
67093;SHT31;54011;50.772;7.730;2022-11-15T11:27:17;16.30;58.94
67093;SHT31;54011;50.772;7.730;2022-11-15T11:30:14;16.50;58.42
67093;SHT31;54011;50.772;7.730;2022-11-15T11:33:00;17.22;56.26
67093;SHT31;54011;50.772;7.730;2022-11-15T11:35:39;16.69;58.55
67093;SHT31;54011;50.772;7.730;2022-11-15T11:38:17;16.51;59.70
67093;SHT31;54011;50.772;7.730;2022-11-15T11:52:39;15.27;61.85
67093;SHT31;54011;50.772;7.730;2022-11-15T11:55:21;15.03;62.22
67093;SHT31;54011;50.772;7.730;2022-11-15T11:58:09;15.14;62.06
67093;SHT31;54011;50.772;7.730;2022-11-15T12:00:50;15.36;61.02
67093;SHT31;54011;50.772;7.730;2022-11-15T12:03:28;15.58;62.04
67093;SHT31;54011;50.772;7.730;2022-11-15T12:06:00;15.55;61.65
67093;SHT31;54011;50.772;7.730;2022-11-15T12:08:56;15.52;61.16
67093;SHT31;54011;50.772;7.730;2022-11-15T12:15:11;15.41;62.70
67093;SHT31;54011;50.772;7.730;2022-11-15T12:17:05;15.44;62.53
67093;SHT31;54011;50.772;7.730;2022-11-15T12:19:35;15.73;63.30
67093;SHT31;54011;50.772;7.730;2022-11-15T12:25:18;15.82;61.74
67093;SHT31;54011;50.772;7.730;2022-11-15T12:27:50;15.54;62.65
67093;SHT31;54011;50.772;7.730;2022-11-15T12:30:21;15.55;63.00
67093;SHT31;54011;50.772;7.730;2022-11-15T12:33:00;15.85;63.13
67093;SHT31;54011;50.772;7.730;2022-11-15T12:37:56;15.62;64.26
67093;SHT31;54011;50.772;7.730;2022-11-15T12:40:30;15.81;64.78
67093;SHT31;54011;50.772;7.730;2022-11-15T12:43:38;16.02;64.27
67093;SHT31;54011;50.772;7.730;2022-11-15T12:46:05;15.87;64.86
67093;SHT31;54011;50.772;7.730;2022-11-15T12:51:03;15.65;64.78
67093;SHT31;54011;50.772;7.730;2022-11-15T12:53:32;15.73;64.84
67093;SHT31;54011;50.772;7.730;2022-11-15T12:58:50;15.67;64.58
67093;SHT31;54011;50.772;7.730;2022-11-15T13:04:22;15.52;64.80
67093;SHT31;54011;50.772;7.730;2022-11-15T13:07:03;15.59;64.38
67093;SHT31;54011;50.772;7.730;2022-11-15T13:11:56;15.42;65.39
67093;SHT31;54011;50.772;7.730;2022-11-15T13:22:51;15.07;66.27
67093;SHT31;54011;50.772;7.730;2022-11-15T13:27:49;15.14;67.20
67093;SHT31;54011;50.772;7.730;2022-11-15T13:30:27;15.30;67.75
67093;SHT31;54011;50.772;7.730;2022-11-15T13:32:55;15.24;67.63
67093;SHT31;54011;50.772;7.730;2022-11-15T13:35:28;15.21;67.41
67093;SHT31;54011;50.772;7.730;2022-11-15T13:37:55;15.49;67.20
67093;SHT31;54011;50.772;7.730;2022-11-15T13:40:23;15.41;67.20
67093;SHT31;54011;50.772;7.730;2022-11-15T13:42:50;14.96;68.76
67093;SHT31;54011;50.772;7.730;2022-11-15T13:45:17;15.10;68.49
67093;SHT31;54011;50.772;7.730;2022-11-15T13:47:43;15.03;68.81
67093;SHT31;54011;50.772;7.730;2022-11-15T13:50:12;14.98;69.01
67093;SHT31;54011;50.772;7.730;2022-11-15T13:52:39;15.05;68.95
67093;SHT31;54011;50.772;7.730;2022-11-15T13:55:16;14.74;69.78
67093;SHT31;54011;50.772;7.730;2022-11-15T13:57:46;14.57;70.73
67093;SHT31;54011;50.772;7.730;2022-11-15T14:00:30;14.57;70.85
67093;SHT31;54011;50.772;7.730;2022-11-15T14:03:05;14.55;71.47
67093;SHT31;54011;50.772;7.730;2022-11-15T14:05:31;14.35;72.30
67093;SHT31;54011;50.772;7.730;2022-11-15T14:08:02;14.24;72.04
67093;SHT31;54011;50.772;7.730;2022-11-15T14:10:34;14.22;72.75
67093;SHT31;54011;50.772;7.730;2022-11-15T14:13:04;14.16;72.60
67093;SHT31;54011;50.772;7.730;2022-11-15T14:17:58;14.19;73.24
67093;SHT31;54011;50.772;7.730;2022-11-15T14:20:37;14.04;73.87
67093;SHT31;54011;50.772;7.730;2022-11-15T14:23:24;14.09;74.03
67093;SHT31;54011;50.772;7.730;2022-11-15T14:26:01;14.00;74.44
67093;SHT31;54011;50.772;7.730;2022-11-15T14:28:30;13.92;74.71
67093;SHT31;54011;50.772;7.730;2022-11-15T14:30:59;14.02;74.44
67093;SHT31;54011;50.772;7.730;2022-11-15T14:33:36;13.91;74.85
67093;SHT31;54011;50.772;7.730;2022-11-15T14:36:05;13.84;75.08
67093;SHT31;54011;50.772;7.730;2022-11-15T14:38:31;13.87;75.00
67093;SHT31;54011;50.772;7.730;2022-11-15T14:40:57;13.79;75.33
67093;SHT31;54011;50.772;7.730;2022-11-15T14:43:23;13.75;75.07
67093;SHT31;54011;50.772;7.730;2022-11-15T14:45:50;13.81;75.03
67093;SHT31;54011;50.772;7.730;2022-11-15T14:48:16;13.75;75.51
67093;SHT31;54011;50.772;7.730;2022-11-15T14:50:44;13.71;75.29
67093;SHT31;54011;50.772;7.730;2022-11-15T14:53:14;13.71;75.31
67093;SHT31;54011;50.772;7.730;2022-11-15T14:55:40;13.67;75.38
67093;SHT31;54011;50.772;7.730;2022-11-15T14:58:06;13.61;75.81
67093;SHT31;54011;50.772;7.730;2022-11-15T15:00:39;13.67;75.97
67093;SHT31;54011;50.772;7.730;2022-11-15T15:03:07;13.56;76.23
67093;SHT31;54011;50.772;7.730;2022-11-15T15:05:38;13.54;76.43
67093;SHT31;54011;50.772;7.730;2022-11-15T15:08:05;13.54;76.50
67093;SHT31;54011;50.772;7.730;2022-11-15T15:10:33;13.43;76.74
67093;SHT31;54011;50.772;7.730;2022-11-15T15:12:59;13.39;76.80
67093;SHT31;54011;50.772;7.730;2022-11-15T15:15:29;13.34;76.88
67093;SHT31;54011;50.772;7.730;2022-11-15T15:17:55;13.27;77.14
67093;SHT31;54011;50.772;7.730;2022-11-15T15:20:20;13.32;77.17
67093;SHT31;54011;50.772;7.730;2022-11-15T15:22:46;13.33;76.97
67093;SHT31;54011;50.772;7.730;2022-11-15T15:25:24;13.26;76.99
67093;SHT31;54011;50.772;7.730;2022-11-15T15:27:55;13.23;77.18
67093;SHT31;54011;50.772;7.730;2022-11-15T15:30:24;13.16;77.30
67093;SHT31;54011;50.772;7.730;2022-11-15T15:32:50;13.20;76.89
67093;SHT31;54011;50.772;7.730;2022-11-15T15:35:17;13.22;76.94
67093;SHT31;54011;50.772;7.730;2022-11-15T15:37:45;13.26;76.76
67093;SHT31;54011;50.772;7.730;2022-11-15T15:40:20;13.15;77.24
67093;SHT31;54011;50.772;7.730;2022-11-15T15:42:46;13.15;77.31
67093;SHT31;54011;50.772;7.730;2022-11-15T15:45:11;13.19;77.07
67093;SHT31;54011;50.772;7.730;2022-11-15T15:47:37;13.17;77.12
67093;SHT31;54011;50.772;7.730;2022-11-15T15:52:39;13.09;77.47
67093;SHT31;54011;50.772;7.730;2022-11-15T15:55:05;13.13;77.29
67093;SHT31;54011;50.772;7.730;2022-11-15T15:57:31;13.10;77.72
67093;SHT31;54011;50.772;7.730;2022-11-15T15:59:56;13.05;77.87
67093;SHT31;54011;50.772;7.730;2022-11-15T16:02:22;13.06;77.99
67093;SHT31;54011;50.772;7.730;2022-11-15T16:04:47;13.02;78.35
67093;SHT31;54011;50.772;7.730;2022-11-15T16:07:21;12.97;78.55
67093;SHT31;54011;50.772;7.730;2022-11-15T16:09:50;12.96;78.65
67093;SHT31;54011;50.772;7.730;2022-11-15T16:12:29;13.03;78.59
67093;SHT31;54011;50.772;7.730;2022-11-15T16:14:55;13.06;78.48
67093;SHT31;54011;50.772;7.730;2022-11-15T16:17:31;12.95;79.03
67093;SHT31;54011;50.772;7.730;2022-11-15T16:19:57;12.99;78.97
67093;SHT31;54011;50.772;7.730;2022-11-15T16:22:23;13.02;79.13
67093;SHT31;54011;50.772;7.730;2022-11-15T16:24:48;12.89;79.51
67093;SHT31;54011;50.772;7.730;2022-11-15T16:27:25;12.96;79.47
67093;SHT31;54011;50.772;7.730;2022-11-15T16:29:54;12.99;79.23
67093;SHT31;54011;50.772;7.730;2022-11-15T16:32:19;13.05;79.39
67093;SHT31;54011;50.772;7.730;2022-11-15T16:34:45;13.02;79.47
67093;SHT31;54011;50.772;7.730;2022-11-15T16:37:22;12.91;79.96
67093;SHT31;54011;50.772;7.730;2022-11-15T16:39:47;12.92;79.88
67093;SHT31;54011;50.772;7.730;2022-11-15T16:42:13;12.84;80.22
67093;SHT31;54011;50.772;7.730;2022-11-15T16:44:40;12.97;79.98
67093;SHT31;54011;50.772;7.730;2022-11-15T16:47:15;12.91;80.07
67093;SHT31;54011;50.772;7.730;2022-11-15T16:49:42;12.96;79.93
67093;SHT31;54011;50.772;7.730;2022-11-15T16:52:08;12.88;80.10
67093;SHT31;54011;50.772;7.730;2022-11-15T16:54:33;12.97;79.91
67093;SHT31;54011;50.772;7.730;2022-11-15T16:56:58;13.07;79.54
67093;SHT31;54011;50.772;7.730;2022-11-15T16:59:24;12.93;80.11
67093;SHT31;54011;50.772;7.730;2022-11-15T17:01:51;13.03;79.63
67093;SHT31;54011;50.772;7.730;2022-11-15T17:04:18;12.92;80.13
67093;SHT31;54011;50.772;7.730;2022-11-15T17:06:46;12.95;80.11
67093;SHT31;54011;50.772;7.730;2022-11-15T17:09:20;12.93;80.28
67093;SHT31;54011;50.772;7.730;2022-11-15T17:11:56;12.89;80.18
67093;SHT31;54011;50.772;7.730;2022-11-15T17:14:23;12.97;79.85
67093;SHT31;54011;50.772;7.730;2022-11-15T17:16:48;12.95;80.06
67093;SHT31;54011;50.772;7.730;2022-11-15T17:19:18;13.06;79.49
67093;SHT31;54011;50.772;7.730;2022-11-15T17:21:46;13.10;79.26
67093;SHT31;54011;50.772;7.730;2022-11-15T17:24:17;13.07;79.48
67093;SHT31;54011;50.772;7.730;2022-11-15T17:26:46;13.02;79.44
67093;SHT31;54011;50.772;7.730;2022-11-15T17:29:12;13.06;79.31
67093;SHT31;54011;50.772;7.730;2022-11-15T17:31:37;13.07;79.39
67093;SHT31;54011;50.772;7.730;2022-11-15T17:34:05;13.07;79.10
67093;SHT31;54011;50.772;7.730;2022-11-15T17:36:31;13.15;79.06
67093;SHT31;54011;50.772;7.730;2022-11-15T17:38:57;13.06;79.24
67093;SHT31;54011;50.772;7.730;2022-11-15T17:41:27;13.09;79.39
67093;SHT31;54011;50.772;7.730;2022-11-15T17:44:04;13.07;79.46
67093;SHT31;54011;50.772;7.730;2022-11-15T17:46:31;13.05;79.59
67093;SHT31;54011;50.772;7.730;2022-11-15T17:48:58;13.07;79.81
67093;SHT31;54011;50.772;7.730;2022-11-15T17:51:25;13.05;79.76
67093;SHT31;54011;50.772;7.730;2022-11-15T17:53:54;13.03;79.71
67093;SHT31;54011;50.772;7.730;2022-11-15T17:56:23;13.05;79.68
67093;SHT31;54011;50.772;7.730;2022-11-15T17:58:56;13.05;79.61
67093;SHT31;54011;50.772;7.730;2022-11-15T18:01:34;12.99;79.66
67093;SHT31;54011;50.772;7.730;2022-11-15T18:04:02;13.00;79.75
67093;SHT31;54011;50.772;7.730;2022-11-15T18:06:30;12.99;79.83
67093;SHT31;54011;50.772;7.730;2022-11-15T18:08:57;12.95;79.92
67093;SHT31;54011;50.772;7.730;2022-11-15T18:11:38;12.95;79.80
67093;SHT31;54011;50.772;7.730;2022-11-15T18:14:07;13.03;79.68
67093;SHT31;54011;50.772;7.730;2022-11-15T18:16:35;12.96;79.70
67093;SHT31;54011;50.772;7.730;2022-11-15T18:19:05;13.03;79.43
67093;SHT31;54011;50.772;7.730;2022-11-15T18:21:33;13.09;79.57
67093;SHT31;54011;50.772;7.730;2022-11-15T18:24:02;13.02;80.38